Time;durP1;ratioP1;P1;durP2;ratioP2;P2;SDS_P1;SDS_P2;PMS_P1;PMS_P2;Temp;Humidity;BMP_temperature;BMP_pressure;BME280_temperature;BME280_humidity;BME280_pressure;Samples;Min_cycle;Max_cycle;Signal;HPM_P1;HPM_P2
2021/12/06 00:01:31;;;;;;;12.15;5.78;;;;;;;7.54;64.34;96862.69;4521676;31;20121;-78
2021/12/06 00:04:07;;;;;;;12.30;5.87;;;;;;;7.54;63.95;96872.97;4521512;31;20087;-78
2021/12/06 00:06:37;;;;;;;11.90;5.37;;;;;;;7.63;63.79;96879.38;4535741;31;20083;-78
2021/12/06 00:09:06;;;;;;;10.48;4.80;;;;;;;7.56;63.66;96876.31;4535319;31;20114;-78
2021/12/06 00:11:34;;;;;;;12.27;5.53;;;;;;;7.36;64.57;96890.09;4535506;31;20402;-78
2021/12/06 00:14:03;;;;;;;10.65;5.30;;;;;;;7.55;63.55;96892.63;4521386;31;20513;-78
2021/12/06 00:16:30;;;;;;;10.73;5.00;;;;;;;7.74;63.02;96902.78;4535381;31;20420;-78
2021/12/06 00:18:57;;;;;;;11.43;5.20;;;;;;;7.90;62.55;96911.41;4521042;31;20091;-78
2021/12/06 00:21:26;;;;;;;12.07;5.22;;;;;;;7.35;64.12;96903.84;4535649;31;20146;-78
2021/12/06 00:23:54;;;;;;;11.30;4.93;;;;;;;7.65;63.98;96909.19;4535110;31;20087;-78
2021/12/06 00:26:21;;;;;;;11.88;5.05;;;;;;;7.46;63.98;96909.28;4521239;31;20185;-78
2021/12/06 00:28:56;;;;;;;10.15;4.70;;;;;;;7.75;63.18;96915.53;4535612;31;20172;-78
2021/12/06 00:31:24;;;;;;;10.63;4.65;;;;;;;8.34;60.72;96924.59;4535182;31;20134;-78
2021/12/06 00:33:58;;;;;;;9.80;4.45;;;;;;;8.31;61.08;96924.72;4521081;31;20455;-78
2021/12/06 00:36:30;;;;;;;9.95;4.53;;;;;;;8.32;61.33;96922.97;4535655;31;20079;-78
2021/12/06 00:38:58;;;;;;;9.75;4.37;;;;;;;8.03;62.59;96930.41;4535080;31;20575;-78
2021/12/06 00:41:25;;;;;;;8.63;4.20;;;;;;;8.20;61.94;96926.19;4535542;31;20502;-78
2021/12/06 00:43:53;;;;;;;9.88;4.75;;;;;;;8.12;61.33;96929.97;4507605;31;20158;-78
2021/12/06 00:46:21;;;;;;;8.85;4.05;;;;;;;8.08;61.72;96925.91;4535132;31;20110;-78
2021/12/06 00:48:48;;;;;;;9.63;4.60;;;;;;;8.23;61.10;96928.59;4535416;31;20099;-78
2021/12/06 00:51:15;;;;;;;9.45;4.28;;;;;;;7.79;62.57;96927.34;4535153;31;20142;-78
2021/12/06 00:53:43;;;;;;;9.88;4.15;;;;;;;7.42;63.85;96915.44;4535376;31;20166;-78
2021/12/06 00:56:11;;;;;;;10.15;4.35;;;;;;;6.16;67.43;96914.37;4535435;31;20481;-78
2021/12/06 00:58:39;;;;;;;10.20;4.55;;;;;;;7.07;65.69;96913.75;4535024;31;20135;-78
2021/12/06 01:01:07;;;;;;;9.60;4.00;;;;;;;7.04;65.72;96911.31;4535341;31;20178;-78
2021/12/06 01:03:37;;;;;;;9.15;4.37;;;;;;;7.88;62.97;96915.78;4535291;31;20456;-78
2021/12/06 01:06:07;;;;;;;9.93;4.20;;;;;;;7.89;62.44;96914.06;4534951;31;20087;-78
2021/12/06 01:08:34;;;;;;;9.60;4.32;;;;;;;6.90;65.25;96910.22;4534161;31;20143;-78
2021/12/06 01:11:02;;;;;;;9.05;3.95;;;;;;;6.99;64.82;96898.69;4520537;31;20103;-78
2021/12/06 01:13:30;;;;;;;9.65;4.00;;;;;;;5.61;71.79;96878.28;4520120;31;20368;-78
2021/12/06 01:15:58;;;;;;;9.98;4.10;;;;;;;5.15;73.42;96887.00;4535361;31;20122;-78
2021/12/06 01:18:26;;;;;;;10.15;4.18;;;;;;;6.58;67.87;96906.53;4535162;31;20160;-78
2021/12/06 01:21:04;;;;;;;9.57;4.07;;;;;;;7.49;63.94;96916.00;4534891;31;20480;-78
2021/12/06 01:23:44;;;;;;;8.50;3.60;;;;;;;6.94;65.98;96904.06;4535084;31;20161;-78
2021/12/06 01:26:30;;;;;;;9.77;4.00;;;;;;;7.95;62.82;96894.00;4522183;31;20504;-78
2021/12/06 01:39:16;;;;;;;8.30;3.62;;;;;;;6.41;67.17;96891.09;4535005;31;20099;-78
2021/12/06 01:41:59;;;;;;;9.40;3.83;;;;;;;6.50;67.72;96888.12;4534836;31;20154;-78
2021/12/06 01:44:30;;;;;;;8.85;3.80;;;;;;;5.60;71.21;96880.91;4534919;31;20086;-78
2021/12/06 01:47:03;;;;;;;8.98;3.90;;;;;;;6.08;69.45;96888.31;4521247;31;20080;-78
2021/12/06 01:49:35;;;;;;;7.43;3.20;;;;;;;6.83;67.02;96897.75;4534524;31;20150;-78
2021/12/06 01:52:08;;;;;;;8.90;3.58;;;;;;;7.66;62.98;96900.63;4520651;31;20111;-78
2021/12/06 01:54:35;;;;;;;8.48;3.60;;;;;;;8.30;60.59;96901.69;4534620;31;20666;-78
2021/12/06 01:57:03;;;;;;;8.77;3.55;;;;;;;8.02;60.93;96912.53;4534924;31;20477;-78
2021/12/06 01:59:30;;;;;;;7.93;3.40;;;;;;;8.34;60.15;96923.72;4534673;31;20083;-78
2021/12/06 02:01:57;;;;;;;6.93;3.33;;;;;;;7.48;63.10;96937.44;4520096;31;20111;-78
2021/12/06 02:04:28;;;;;;;7.12;3.17;;;;;;;7.81;62.66;96932.41;4534634;31;20098;-78
2021/12/06 02:06:57;;;;;;;7.68;3.17;;;;;;;6.54;66.97;96925.53;4534921;31;20076;-78
2021/12/06 02:09:26;;;;;;;7.68;3.47;;;;;;;7.69;62.28;96925.31;4534283;31;20130;-78
2021/12/06 02:11:57;;;;;;;7.72;3.20;;;;;;;8.44;59.74;96921.53;4534543;31;20142;-78
2021/12/06 02:14:52;;;;;;;7.35;3.20;;;;;;;8.62;58.91;96924.00;4534666;31;20082;-78
2021/12/06 02:17:27;;;;;;;7.53;3.10;;;;;;;8.50;58.82;96931.50;4534431;31;20135;-78
2021/12/06 02:20:04;;;;;;;6.80;2.90;;;;;;;8.55;58.32;96930.34;4534135;31;20131;-78
2021/12/06 02:22:34;;;;;;;6.60;3.22;;;;;;;7.95;60.11;96921.44;4534234;31;20135;-78
2021/12/06 02:25:03;;;;;;;7.40;3.08;;;;;;;8.20;60.74;96903.88;4534439;31;20139;-78
2021/12/06 02:27:30;;;;;;;6.60;2.87;;;;;;;7.56;62.54;96909.69;4534522;31;20143;-78
2021/12/06 02:29:59;;;;;;;7.05;3.30;;;;;;;8.02;60.91;96912.53;4534121;31;20150;-78
2021/12/06 02:32:27;;;;;;;7.47;3.15;;;;;;;8.59;58.69;96913.00;4534391;31;20131;-78
2021/12/06 02:34:55;;;;;;;7.65;3.10;;;;;;;7.36;62.32;96886.72;4520019;31;20159;-78
2021/12/06 02:37:27;;;;;;;7.57;3.40;;;;;;;7.26;63.52;96904.28;4519795;31;20097;-78
2021/12/06 02:40:01;;;;;;;8.48;3.40;;;;;;;6.79;65.60;96901.34;4534543;31;20091;-78
2021/12/06 02:42:28;;;;;;;7.82;3.40;;;;;;;7.53;63.14;96899.53;4534374;31;20437;-78
2021/12/06 02:44:55;;;;;;;8.35;3.47;;;;;;;7.58;63.02;96889.06;4533866;31;20368;-78
2021/12/06 02:47:22;;;;;;;9.38;3.60;;;;;;;7.88;62.07;96891.84;4534276;31;20079;-78
2021/12/06 02:49:50;;;;;;;8.05;3.62;;;;;;;7.59;63.03;96883.84;4519442;31;20170;-77
2021/12/06 02:52:17;;;;;;;8.80;3.85;;;;;;;7.14;64.74;96895.44;4533828;31;20155;-77
2021/12/06 02:54:49;;;;;;;9.57;3.83;;;;;;;7.43;64.04;96900.88;4534138;31;20091;-77
2021/12/06 02:59:44;;;;;;;7.07;3.00;;;;;;;6.58;67.45;96906.53;4533593;31;20118;-77
2021/12/06 03:02:15;;;;;;;8.07;3.10;;;;;;;7.23;64.06;96910.41;4519670;31;20763;-77
2021/12/06 03:04:42;;;;;;;8.10;3.33;;;;;;;6.81;66.03;96909.81;4533569;31;20079;-78
2021/12/06 03:07:10;;;;;;;8.50;3.25;;;;;;;6.58;67.10;96921.09;4506514;31;20131;-78
2021/12/06 03:09:39;;;;;;;7.00;2.87;;;;;;;6.08;69.28;96926.72;4533777;31;20130;-78
2021/12/06 03:12:11;;;;;;;6.47;2.67;;;;;;;6.04;69.39;96927.72;4519022;31;20119;-77
2021/12/06 03:14:43;;;;;;;6.90;2.85;;;;;;;6.23;68.31;96938.03;4519282;31;20083;-77
2021/12/06 03:17:14;;;;;;;7.10;2.92;;;;;;;6.64;66.80;96936.22;4519527;31;20149;-77
2021/12/06 03:19:41;;;;;;;6.18;2.67;;;;;;;5.25;72.24;96913.87;4533292;31;20113;-78
2021/12/06 03:22:11;;;;;;;7.40;2.92;;;;;;;4.49;76.29;96914.25;4533796;31;20096;-78
2021/12/06 03:24:38;;;;;;;7.30;3.00;;;;;;;4.23;77.71;96918.56;4519111;31;20105;-77
2021/12/06 03:27:05;;;;;;;7.68;3.00;;;;;;;4.75;76.02;96919.22;4533318;31;20557;-78
2021/12/06 03:29:33;;;;;;;7.35;3.00;;;;;;;4.87;74.51;96905.13;4533377;31;20159;-78
2021/12/06 03:32:00;;;;;;;6.93;3.17;;;;;;;5.41;72.24;96914.09;4519436;31;20178;-78
2021/12/06 03:34:29;;;;;;;7.47;3.30;;;;;;;5.26;73.00;96910.44;4521225;31;20154;-78
2021/12/06 03:36:58;;;;;;;6.93;3.05;;;;;;;5.21;73.02;96912.34;4536031;31;20079;-77
2021/12/06 03:39:28;;;;;;;6.60;2.70;;;;;;;6.22;69.47;96905.63;4535767;31;20122;-77
2021/12/06 03:41:59;;;;;;;6.30;2.75;;;;;;;5.86;70.62;96905.44;4535760;31;20131;-78
2021/12/06 03:44:27;;;;;;;6.65;2.90;;;;;;;7.07;65.16;96914.56;4535810;31;20171;-78
2021/12/06 03:47:00;;;;;;;7.40;3.15;;;;;;;6.63;66.58;96909.75;4535563;31;20481;-78
2021/12/06 03:49:28;;;;;;;7.00;2.97;;;;;;;6.62;66.94;96917.50;4521386;31;20106;-77
2021/12/06 03:51:55;;;;;;;7.35;2.95;;;;;;;7.36;63.55;96920.06;4535914;31;20095;-77
2021/12/06 03:54:25;;;;;;;7.03;2.97;;;;;;;7.20;63.80;96917.38;4535372;31;20095;-77
2021/12/06 03:56:53;;;;;;;7.87;3.25;;;;;;;6.79;65.30;96916.72;4535932;31;20433;-77
2021/12/06 03:59:20;;;;;;;8.55;3.30;;;;;;;6.56;65.46;96916.03;4535623;31;20589;-77
2021/12/06 04:01:48;;;;;;;6.97;2.78;;;;;;;7.39;62.90;96925.03;4535467;31;20166;-78
2021/12/06 04:04:15;;;;;;;8.25;3.30;;;;;;;6.87;64.14;96920.63;4535520;31;20162;-77
2021/12/06 04:06:43;;;;;;;10.30;3.53;;;;;;;7.22;63.17;96929.22;4535785;31;20083;-77
2021/12/06 04:09:11;;;;;;;6.95;3.22;;;;;;;6.76;64.37;96934.81;4535192;31;20102;-78
2021/12/06 04:11:39;;;;;;;8.90;3.50;;;;;;;7.03;63.77;96931.00;4535603;31;20134;-78
2021/12/06 04:14:06;;;;;;;8.40;3.45;;;;;;;6.43;66.62;96929.47;4535369;31;20176;-77
2021/12/06 04:16:34;;;;;;;7.78;3.15;;;;;;;6.63;65.13;96937.94;4535468;31;20199;-77
2021/12/06 04:19:03;;;;;;;8.68;3.50;;;;;;;6.54;65.89;96922.13;4535528;31;20090;-78
2021/12/06 04:21:32;;;;;;;8.05;3.20;;;;;;;5.53;69.62;96921.28;4535903;31;20091;-78
2021/12/06 04:23:59;;;;;;;8.45;3.40;;;;;;;6.08;68.14;96921.59;4535073;31;20544;-78
2021/12/06 04:26:26;;;;;;;8.65;3.30;;;;;;;5.90;68.79;96925.75;4521289;31;20103;-78
2021/12/06 04:28:59;;;;;;;9.18;3.33;;;;;;;6.70;65.40;96930.81;4535119;31;20179;-78
2021/12/06 04:31:30;;;;;;;8.77;3.42;;;;;;;6.36;65.98;96924.59;4535739;31;20095;-78
2021/12/06 04:33:57;;;;;;;8.60;3.25;;;;;;;6.15;67.45;96924.69;4535564;31;20183;-78
2021/12/06 04:36:36;;;;;;;8.43;3.60;;;;;;;5.20;70.33;96920.88;4535212;31;20073;-78
2021/12/06 04:39:06;;;;;;;8.77;3.35;;;;;;;5.46;70.26;96925.00;4520982;31;20234;-78
2021/12/06 04:41:34;;;;;;;8.88;3.40;;;;;;;6.42;66.31;96935.50;4535554;31;20742;-77
2021/12/06 04:44:01;;;;;;;8.70;3.70;;;;;;;6.80;64.65;96937.16;4534716;31;20084;-78
2021/12/06 04:46:27;;;;;;;9.57;3.72;;;;;;;6.34;66.27;96944.34;4535530;31;20131;-77
2021/12/06 04:48:55;;;;;;;9.45;4.03;;;;;;;6.99;63.76;96951.72;4535213;31;20113;-77
2021/12/06 04:51:22;;;;;;;9.90;3.70;;;;;;;6.76;64.39;96963.03;4535215;31;20106;-78
2021/12/06 04:53:50;;;;;;;10.05;3.60;;;;;;;6.90;64.09;96969.19;4535303;31;20133;-77
2021/12/06 04:56:31;;;;;;;8.82;3.53;;;;;;;7.21;63.14;96957.53;4535383;31;20095;-77
2021/12/06 04:59:12;;;;;;;9.38;3.50;;;;;;;6.80;64.68;96956.84;4534987;31;20155;-77
2021/12/06 05:01:40;;;;;;;9.32;3.62;;;;;;;5.85;68.19;96953.25;4521081;31;20167;-77
2021/12/06 05:04:12;;;;;;;10.52;3.85;;;;;;;6.20;67.55;96956.91;4520517;31;20106;-78
2021/12/06 05:06:44;;;;;;;10.50;3.95;;;;;;;5.96;68.29;96963.91;4535417;31;20150;-77
2021/12/06 05:09:20;;;;;;;11.85;4.00;;;;;;;5.80;69.22;96984.13;4535167;31;20106;-77
2021/12/06 05:11:47;;;;;;;10.43;4.20;;;;;;;6.51;67.15;96976.94;4520650;31;20094;-77
2021/12/06 05:14:14;;;;;;;9.98;3.70;;;;;;;5.99;69.36;96975.75;4535007;31;20161;-77
2021/12/06 05:16:41;;;;;;;12.55;3.70;;;;;;;5.81;69.79;96973.00;4535314;31;20154;-77
2021/12/06 05:19:08;;;;;;;10.30;3.78;;;;;;;5.47;71.65;96973.53;4534652;31;20095;-77
2021/12/06 05:21:36;;;;;;;10.52;4.65;;;;;;;5.90;70.08;96976.09;4535285;31;20083;-77
2021/12/06 05:24:05;;;;;;;10.55;4.05;;;;;;;4.79;74.04;96966.78;4520620;31;20157;-77
2021/12/06 05:26:32;;;;;;;11.15;4.70;;;;;;;5.42;72.91;96984.81;4520440;31;20142;-77
2021/12/06 05:29:01;;;;;;;11.85;4.40;;;;;;;5.51;72.27;96987.03;4534978;31;20155;-77
2021/12/06 05:31:29;;;;;;;10.23;4.00;;;;;;;5.05;74.45;96988.81;4535327;31;20091;-77
2021/12/06 05:34:02;;;;;;;12.10;4.25;;;;;;;5.42;72.96;96997.63;4520412;31;20117;-77
2021/12/06 05:36:29;;;;;;;11.50;4.30;;;;;;;5.16;73.65;96991.78;4535215;31;20162;-77
2021/12/06 05:38:57;;;;;;;11.05;3.95;;;;;;;4.75;76.47;97000.16;4534565;31;20504;-78
2021/12/06 05:41:24;;;;;;;10.77;4.55;;;;;;;4.62;76.85;96995.50;4520799;31;20107;-77
2021/12/06 05:43:51;;;;;;;11.88;4.00;;;;;;;4.89;75.82;96997.91;4520430;31;20151;-77
2021/12/06 05:46:19;;;;;;;10.43;4.03;;;;;;;4.72;76.09;96984.94;4534678;31;20151;-78
2021/12/06 05:48:46;;;;;;;10.00;4.05;;;;;;;5.51;73.46;96989.59;4534867;31;20092;-77
2021/12/06 05:51:13;;;;;;;10.48;3.55;;;;;;;4.64;76.72;97001.38;4535090;31;20441;-77
2021/12/06 05:53:40;;;;;;;9.82;3.75;;;;;;;4.15;78.25;97001.41;4520270;31;20091;-77
2021/12/06 05:56:07;;;;;;;10.40;4.07;;;;;;;4.64;76.62;97008.19;4534143;31;20079;-77
2021/12/06 05:58:34;;;;;;;9.68;3.65;;;;;;;5.20;74.86;97002.72;4534821;31;20468;-77
2021/12/06 06:01:02;;;;;;;10.93;3.83;;;;;;;4.75;77.46;97006.09;4534610;31;20106;-77
2021/12/06 06:03:29;;;;;;;9.43;3.75;;;;;;;4.91;76.68;97011.50;4520379;31;20079;-77
2021/12/06 06:05:57;;;;;;;12.40;4.40;;;;;;;4.59;78.49;97012.66;4520532;31;20067;-77
2021/12/06 06:08:25;;;;;;;10.00;3.97;;;;;;;4.74;77.93;97021.47;4534270;31;20425;-77
2021/12/06 06:10:53;;;;;;;11.02;4.18;;;;;;;4.55;78.63;97019.56;4534756;31;20095;-77
2021/12/06 06:13:20;;;;;;;10.63;4.10;;;;;;;5.41;75.21;97029.22;4534394;31;20146;-78
2021/12/06 06:15:50;;;;;;;11.30;4.62;;;;;;;4.54;78.94;97040.06;4519891;31;20131;-77
2021/12/06 06:18:18;;;;;;;14.10;5.55;;;;;;;5.06;76.77;97027.97;4534623;31;20158;-77
2021/12/06 06:20:49;;;;;;;15.07;5.80;;;;;;;4.93;76.85;97030.16;4534684;31;20106;-78
2021/12/06 06:23:20;;;;;;;13.50;5.68;;;;;;;5.20;76.14;97041.91;4534640;31;20369;-77
2021/12/06 06:25:47;;;;;;;15.98;5.60;;;;;;;3.99;80.77;97045.31;4533762;31;20175;-78
2021/12/06 06:28:14;;;;;;;15.82;5.65;;;;;;;4.59;78.60;97040.75;4534259;31;20170;-79
2021/12/06 06:30:41;;;;;;;15.05;6.03;;;;;;;5.13;77.05;97055.84;4534572;31;20148;-80
2021/12/06 06:33:09;;;;;;;12.27;4.97;;;;;;;4.78;78.51;97054.53;4519829;31;20091;-79
2021/12/06 06:35:36;;;;;;;17.62;6.62;;;;;;;3.93;82.64;97067.63;4534201;31;20170;-82
2021/12/06 06:38:04;;;;;;;16.52;6.10;;;;;;;3.95;82.72;97065.91;4534401;31;20108;-79
2021/12/06 06:40:31;;;;;;;18.00;6.37;;;;;;;4.71;79.53;97067.59;4534503;31;20489;-78
2021/12/06 06:42:58;;;;;;;19.95;7.37;;;;;;;4.66;79.28;97083.06;4519914;31;20139;-80
2021/12/06 06:45:25;;;;;;;15.43;6.50;;;;;;;4.86;79.34;97082.37;4519882;31;20130;-77
2021/12/06 06:47:52;;;;;;;16.80;6.40;;;;;;;5.02;78.40;97087.78;4532856;31;20104;-78
2021/12/06 06:50:19;;;;;;;18.65;6.57;;;;;;;4.64;79.75;97097.63;4532615;31;20155;-78
2021/12/06 06:52:47;;;;;;;19.30;7.43;;;;;;;4.05;81.93;97096.19;4534184;31;20158;-77
2021/12/06 06:55:15;;;;;;;16.27;7.47;;;;;;;3.93;84.02;97100.81;4532693;31;20471;-77
2021/12/06 06:57:44;;;;;;;16.87;6.90;;;;;;;4.20;82.37;97101.66;4516845;31;20123;-78
2021/12/06 07:00:18;;;;;;;17.67;7.35;;;;;;;4.23;82.29;97109.22;4531710;31;20591;-78
2021/12/06 07:02:45;;;;;;;18.67;7.80;;;;;;;3.89;83.84;97110.28;4531537;31;20191;-77
2021/12/06 07:05:13;;;;;;;17.73;7.00;;;;;;;4.27;81.79;97114.19;4531174;31;20091;-78
2021/12/06 07:07:40;;;;;;;18.87;7.25;;;;;;;4.06;83.19;97110.59;4533260;31;20107;-77
2021/12/06 07:10:08;;;;;;;18.73;7.20;;;;;;;3.58;85.74;97112.09;4534010;31;20151;-77
2021/12/06 07:12:43;;;;;;;17.73;6.80;;;;;;;4.34;82.44;97123.31;4535789;31;20421;-77
2021/12/06 07:15:20;;;;;;;17.05;6.87;;;;;;;3.80;84.17;97122.50;4536024;31;20155;-77
2021/12/06 07:17:47;;;;;;;11.95;5.07;;;;;;;4.28;81.75;97128.63;4535628;31;20083;-77
2021/12/06 07:20:15;;;;;;;15.07;6.53;;;;;;;4.14;82.12;97133.31;4536115;31;20535;-77
2021/12/06 07:22:42;;;;;;;16.10;6.72;;;;;;;4.45;81.31;97124.66;4521692;31;20083;-77
2021/12/06 07:25:10;;;;;;;17.02;7.03;;;;;;;3.82;83.62;97136.88;4535633;31;20080;-78
2021/12/06 07:27:37;;;;;;;18.40;5.82;;;;;;;4.17;81.70;97135.78;4536029;31;20127;-78
2021/12/06 07:30:06;;;;;;;16.62;7.25;;;;;;;4.25;82.12;97138.94;4521517;31;20155;-77
2021/12/06 07:32:33;;;;;;;16.12;7.20;;;;;;;4.88;79.95;97142.78;4535754;31;20122;-77
2021/12/06 07:35:02;;;;;;;13.50;5.68;;;;;;;4.50;80.77;97148.34;4536018;31;20135;-77
2021/12/06 07:37:29;;;;;;;15.73;6.78;;;;;;;4.50;81.24;97145.81;4535928;31;20091;-77
2021/12/06 07:39:56;;;;;;;15.10;6.68;;;;;;;4.27;81.59;97157.59;4521195;31;20174;-78
2021/12/06 07:42:23;;;;;;;18.05;7.10;;;;;;;3.85;83.42;97153.81;4521426;31;20092;-77
2021/12/06 07:44:51;;;;;;;14.93;6.25;;;;;;;4.27;82.24;97161.88;4535848;31;20099;-77
2021/12/06 07:47:18;;;;;;;14.77;6.30;;;;;;;5.23;77.32;97151.78;4535418;31;20572;-78
2021/12/06 07:49:45;;;;;;;14.57;6.05;;;;;;;5.48;75.68;97161.12;4535678;31;20170;-77
2021/12/06 07:52:26;;;;;;;15.50;6.07;;;;;;;4.64;79.61;97156.38;4522790;31;20120;-78
2021/12/06 07:54:58;;;;;;;13.62;6.15;;;;;;;5.86;74.84;97164.84;4521361;31;20120;-77
2021/12/06 07:57:26;;;;;;;16.45;6.65;;;;;;;4.37;80.63;97158.16;4535739;31;20147;-77
2021/12/06 07:59:53;;;;;;;10.98;4.78;;;;;;;4.94;79.25;97157.91;4520957;31;20117;-77
2021/12/06 08:02:20;;;;;;;12.85;6.28;;;;;;;5.15;77.62;97158.87;4535716;31;20159;-77
2021/12/06 08:05:00;;;;;;;12.98;4.87;;;;;;;5.15;77.25;97158.06;4535587;31;20080;-77
2021/12/06 08:07:27;;;;;;;12.43;5.05;;;;;;;5.07;78.03;97153.19;4535363;31;20102;-77
2021/12/06 08:09:53;;;;;;;13.27;4.93;;;;;;;4.90;78.40;97155.53;4535573;31;20483;-77
2021/12/06 08:12:20;;;;;;;12.50;5.37;;;;;;;4.67;79.63;97158.84;4535371;31;20480;-77
2021/12/06 08:14:47;;;;;;;13.13;5.10;;;;;;;4.89;78.65;97158.94;4535503;31;20147;-77
2021/12/06 08:17:15;;;;;;;16.05;6.47;;;;;;;4.27;80.99;97161.88;4535639;31;20139;-77
2021/12/06 08:19:42;;;;;;;11.77;5.03;;;;;;;4.25;81.90;97161.06;4534929;31;20102;-77
2021/12/06 08:22:09;;;;;;;12.80;5.55;;;;;;;4.57;81.28;97172.81;4535257;31;20433;-78
2021/12/06 08:24:36;;;;;;;15.23;5.90;;;;;;;5.04;78.09;97161.00;4535474;31;20128;-77
2021/12/06 08:27:03;;;;;;;11.77;5.47;;;;;;;4.65;79.90;97163.16;4535470;31;20167;-77
2021/12/06 08:29:30;;;;;;;11.10;4.90;;;;;;;4.97;79.21;97156.13;4535192;31;20139;-77
2021/12/06 08:31:57;;;;;;;13.43;5.43;;;;;;;5.11;78.47;97154.78;4535678;31;20495;-77
2021/12/06 08:34:24;;;;;;;13.32;5.20;;;;;;;3.94;82.52;97172.25;4520790;31;20075;-75
2021/12/06 08:36:51;;;;;;;13.18;5.12;;;;;;;4.38;82.29;97170.03;4535404;31;20115;-76
2021/12/06 08:39:18;;;;;;;9.27;3.58;;;;;;;4.51;81.36;97167.91;4535403;31;20449;-76
2021/12/06 08:41:45;;;;;;;12.90;5.82;;;;;;;4.65;79.06;97181.87;4535247;31;20493;-76
2021/12/06 08:44:13;;;;;;;11.57;4.68;;;;;;;4.61;80.02;97176.94;4535608;31;20095;-77
2021/12/06 08:46:41;;;;;;;13.07;4.50;;;;;;;5.10;78.27;97181.22;4535344;31;20453;-77
2021/12/06 08:49:09;;;;;;;11.35;4.05;;;;;;;4.81;78.54;97177.12;4534968;31;20108;-77
2021/12/06 08:51:44;;;;;;;9.25;3.45;;;;;;;4.33;81.25;97185.47;4521335;31;20146;-77
2021/12/06 08:54:12;;;;;;;11.63;4.78;;;;;;;4.51;80.17;97186.63;4521348;31;20079;-77
2021/12/06 08:56:39;;;;;;;10.57;3.97;;;;;;;4.94;78.78;97182.66;4520646;31;20165;-77
2021/12/06 08:59:07;;;;;;;10.35;3.72;;;;;;;4.99;78.32;97192.69;4535363;31;20150;-77
2021/12/06 09:01:35;;;;;;;9.30;3.28;;;;;;;5.28;77.38;97177.19;4535323;31;20083;-77
2021/12/06 09:04:23;;;;;;;11.12;4.43;;;;;;;5.50;75.94;97185.75;4534924;31;20433;-77
2021/12/06 09:06:52;;;;;;;11.10;4.15;;;;;;;5.82;74.09;97193.97;4520733;31;20472;-77
2021/12/06 09:09:21;;;;;;;11.12;4.32;;;;;;;6.40;72.22;97194.34;4534789;31;20158;-77
2021/12/06 09:11:49;;;;;;;10.20;3.83;;;;;;;6.53;71.70;97199.81;4535406;31;20083;-77
2021/12/06 09:14:17;;;;;;;10.50;4.25;;;;;;;6.03;72.78;97193.19;4535151;31;20080;-77
2021/12/06 09:16:45;;;;;;;10.75;3.95;;;;;;;6.04;73.31;97189.75;4534880;31;20091;-77
2021/12/06 09:19:14;;;;;;;11.48;4.05;;;;;;;5.80;73.01;97172.72;4520811;31;20151;-77
2021/12/06 09:21:43;;;;;;;12.98;4.87;;;;;;;6.93;70.60;97189.59;4520847;31;20158;-77
2021/12/06 09:24:14;;;;;;;10.98;4.62;;;;;;;6.68;71.47;97187.19;4520667;31;20440;-77
2021/12/06 09:26:43;;;;;;;10.35;4.10;;;;;;;6.71;71.31;97193.12;4535018;31;20159;-77
2021/12/06 09:29:11;;;;;;;11.55;4.25;;;;;;;6.83;70.01;97193.44;4520235;31;20151;-77
2021/12/06 09:31:39;;;;;;;10.55;4.40;;;;;;;6.79;70.78;97197.00;4519743;31;20103;-77
2021/12/06 09:34:06;;;;;;;10.88;4.22;;;;;;;6.81;70.57;97197.81;4520766;31;20067;-77
2021/12/06 09:36:35;;;;;;;10.50;4.18;;;;;;;7.01;69.26;97189.25;4520709;31;20114;-77
2021/12/06 09:39:05;;;;;;;10.88;4.10;;;;;;;6.81;70.35;97179.88;4520454;31;20795;-77
2021/12/06 09:41:32;;;;;;;11.55;4.65;;;;;;;5.92;73.23;97186.81;4535164;31;20080;-77
2021/12/06 09:44:03;;;;;;;12.10;4.72;;;;;;;6.61;71.62;97190.94;4534999;31;20099;-76
2021/12/06 09:46:36;;;;;;;9.85;4.30;;;;;;;6.19;72.98;97184.94;4534705;31;20087;-77
2021/12/06 09:49:07;;;;;;;10.50;4.18;;;;;;;5.84;75.01;97183.69;4534929;31;20091;-77
2021/12/06 09:51:35;;;;;;;12.93;5.40;;;;;;;6.07;74.22;97183.69;4534774;31;20083;-77
2021/12/06 09:54:03;;;;;;;11.20;4.53;;;;;;;6.12;73.30;97174.09;4535083;31;20098;-77
2021/12/06 09:56:34;;;;;;;11.40;4.72;;;;;;;6.24;73.25;97173.63;4534872;31;20096;-77
2021/12/06 09:59:06;;;;;;;11.57;5.00;;;;;;;6.22;72.66;97174.56;4534631;31;20158;-77
2021/12/06 10:01:47;;;;;;;15.10;5.60;;;;;;;6.28;73.50;97164.09;4535086;31;20103;-77
2021/12/06 10:04:16;;;;;;;13.95;6.05;;;;;;;6.21;73.39;97166.06;4535030;31;20075;-77
2021/12/06 10:06:44;;;;;;;14.93;5.78;;;;;;;6.07;73.86;97156.34;4519997;31;20118;-76
2021/12/06 10:09:13;;;;;;;15.02;6.20;;;;;;;5.45;76.11;97151.00;4534703;31;20146;-77
2021/12/06 10:11:40;;;;;;;13.13;6.03;;;;;;;5.61;76.13;97139.31;4534826;31;20118;-77
2021/12/06 10:14:07;;;;;;;14.32;6.12;;;;;;;5.59;76.88;97146.22;4534131;31;20101;-77
2021/12/06 10:16:36;;;;;;;14.25;6.10;;;;;;;5.30;78.02;97149.81;4520317;31;20107;-76
2021/12/06 10:19:05;;;;;;;15.88;6.65;;;;;;;5.27;78.34;97147.38;4534683;31;20202;-76
2021/12/06 10:21:34;;;;;;;17.83;7.95;;;;;;;5.25;78.29;97156.00;4520295;31;20165;-76
2021/12/06 10:24:01;;;;;;;16.33;7.12;;;;;;;5.15;78.79;97151.22;4534717;31;20143;-77
2021/12/06 10:26:31;;;;;;;17.00;7.10;;;;;;;5.64;76.71;97151.19;4534417;31;20151;-76
2021/12/06 10:29:12;;;;;;;17.50;7.12;;;;;;;5.04;79.02;97143.09;4520124;31;20117;-77
2021/12/06 10:31:43;;;;;;;16.50;6.78;;;;;;;4.99;79.68;97157.75;4520284;31;20126;-77
2021/12/06 10:34:16;;;;;;;17.52;7.50;;;;;;;4.76;80.89;97160.25;4534256;31;20094;-77
2021/12/06 10:36:43;;;;;;;15.13;6.62;;;;;;;4.77;81.29;97161.91;4534347;31;20782;-77
2021/12/06 10:39:10;;;;;;;17.27;7.05;;;;;;;5.05;79.11;97160.09;4520040;31;20107;-77
2021/12/06 10:41:38;;;;;;;18.25;7.20;;;;;;;5.37;78.50;97165.81;4534831;31;20111;-77
2021/12/06 10:44:12;;;;;;;14.82;6.03;;;;;;;5.36;77.36;97156.47;4536569;31;20472;-77
2021/12/06 10:46:42;;;;;;;16.58;6.53;;;;;;;4.77;79.36;97180.63;4522372;31;20099;-77
2021/12/06 10:49:13;;;;;;;16.27;7.32;;;;;;;4.88;80.39;97193.91;4536207;31;20142;-77
2021/12/06 10:51:40;;;;;;;18.80;7.53;;;;;;;5.05;79.62;97190.78;4536603;31;20079;-77
2021/12/06 10:54:17;;;;;;;16.85;7.00;;;;;;;5.69;76.80;97193.59;4536507;31;20127;-77
2021/12/06 10:56:47;;;;;;;16.30;6.53;;;;;;;5.12;78.72;97199.09;4536295;31;20145;-77
2021/12/06 10:59:20;;;;;;;16.08;7.25;;;;;;;6.06;74.79;97203.34;4536557;31;20142;-77
2021/12/06 11:01:50;;;;;;;16.17;6.35;;;;;;;5.97;74.51;97202.88;4536501;31;20076;-77
2021/12/06 11:04:19;;;;;;;17.50;6.97;;;;;;;5.81;75.22;97205.13;4522106;31;20414;-76
2021/12/06 11:06:49;;;;;;;13.98;6.40;;;;;;;6.26;73.52;97211.97;4536108;31;20113;-77
2021/12/06 11:09:20;;;;;;;15.23;6.15;;;;;;;5.82;74.84;97210.19;4535784;31;20154;-78
2021/12/06 11:11:50;;;;;;;13.98;6.43;;;;;;;5.84;74.93;97209.28;4536262;31;20162;-78
2021/12/06 11:14:22;;;;;;;15.20;6.22;;;;;;;6.37;73.30;97213.22;4521922;31;20122;-77
2021/12/06 11:16:54;;;;;;;15.02;6.18;;;;;;;6.58;71.53;97218.41;4535914;31;20147;-77
2021/12/06 11:19:23;;;;;;;14.52;6.60;;;;;;;6.60;71.75;97226.87;4536150;31;20117;-77
2021/12/06 11:21:58;;;;;;;12.80;5.62;;;;;;;6.39;73.01;97241.37;4536234;31;20131;-76
2021/12/06 11:24:26;;;;;;;14.10;5.65;;;;;;;6.15;72.81;97237.16;4535678;31;20452;-77
2021/12/06 11:27:05;;;;;;;14.07;6.40;;;;;;;5.10;77.17;97244.31;4521784;31;20114;-77
2021/12/06 11:29:34;;;;;;;15.02;6.00;;;;;;;5.50;76.02;97247.16;4536290;31;20566;-77
2021/12/06 11:32:10;;;;;;;15.18;6.30;;;;;;;5.04;77.28;97258.16;4536157;31;20088;-77
2021/12/06 11:34:41;;;;;;;16.60;6.32;;;;;;;6.35;72.61;97250.06;4522414;31;20151;-77
2021/12/06 11:37:28;;;;;;;15.38;5.82;;;;;;;6.92;69.30;97264.03;4536826;31;20143;-77
2021/12/06 11:40:20;;;;;;;13.57;5.85;;;;;;;6.26;71.52;97263.22;4536216;31;20095;-77
2021/12/06 11:42:50;;;;;;;14.18;6.05;;;;;;;6.83;69.25;97252.41;4536143;31;20099;-77
2021/12/06 11:45:40;;;;;;;13.85;6.00;;;;;;;6.15;72.28;97261.06;4535413;31;20105;-77
2021/12/06 11:48:12;;;;;;;13.35;5.47;;;;;;;5.90;73.18;97256.00;4535672;31;20175;-79
2021/12/06 11:50:47;;;;;;;14.35;5.53;;;;;;;5.81;73.31;97244.34;4535671;31;20091;-80
2021/12/06 11:53:17;;;;;;;13.18;5.53;;;;;;;6.58;70.20;97251.72;4520512;31;20142;-79
2021/12/06 11:55:48;;;;;;;14.35;5.53;;;;;;;6.51;70.64;97245.19;4535532;31;20099;-79
2021/12/06 11:58:32;;;;;;;13.52;5.68;;;;;;;6.76;69.68;97251.00;4535430;31;20134;-80
2021/12/06 12:01:11;;;;;;;14.23;5.47;;;;;;;7.00;68.95;97254.28;4535987;31;20125;-79